Time,TemperatureF,DewpointF,PressureIn,WindDirection,WindDirectionDegrees,WindSpeedMPH,WindSpeedGustMPH,Humidity,HourlyPrecipIn,Conditions,Clouds,dailyrainin,SoftwareType,DateUTC
2015-05-30 00:00:00,69.8,64.7,30.15,South,185,0.0,0.0,84,0.00,,,0.00,Wunderground v.1.15,2015-05-30 04:00:00,
2015-05-30 00:10:00,69.8,65.1,30.15,SSW,212,0.0,1.0,85,0.00,,,0.00,Wunderground v.1.15,2015-05-30 04:10:00,
2015-05-30 00:20:00,70.0,65.3,30.15,SSE,160,0.0,0.0,85,0.00,,,0.00,Wunderground v.1.15,2015-05-30 04:20:00,
2015-05-30 00:30:00,69.9,65.2,30.15,SE,125,0.0,0.0,85,0.00,,,0.00,Wunderground v.1.15,2015-05-30 04:30:00,
2015-05-30 00:40:00,69.8,65.4,30.15,WSW,248,0.0,0.0,86,0.00,,,0.00,Wunderground v.1.15,2015-05-30 04:40:00,
2015-05-30 00:50:00,69.5,65.1,30.15,WSW,248,0.0,0.0,86,0.00,,,0.00,Wunderground v.1.15,2015-05-30 04:50:00,
2015-05-30 01:00:00,69.3,65.3,30.15,SSW,212,0.0,0.0,87,0.00,,,0.00,Wunderground v.1.15,2015-05-30 05:00:00,
2015-05-30 01:10:00,69.4,65.4,30.14,SE,126,0.0,0.0,87,0.00,,,0.00,Wunderground v.1.15,2015-05-30 05:10:00,
2015-05-30 01:20:00,69.7,65.7,30.15,SSW,212,0.0,1.0,87,0.00,,,0.00,Wunderground v.1.15,2015-05-30 05:20:00,
2015-05-30 01:25:00,69.9,65.9,30.14,SW,223,0.0,1.0,87,0.00,,,0.00,Wunderground v.1.15,2015-05-30 05:25:00,
2015-05-30 01:35:00,70.1,65.7,30.14,SSW,195,0.0,0.0,86,0.00,,,0.00,Wunderground v.1.15,2015-05-30 05:35:00,
2015-05-30 01:45:00,70.3,65.9,30.14,SSE,157,0.0,1.0,86,0.00,,,0.00,Wunderground v.1.15,2015-05-30 05:45:00,
2015-05-30 01:55:00,70.4,66.0,30.14,WSW,241,1.0,1.0,86,0.00,,,0.00,Wunderground v.1.15,2015-05-30 05:55:00,
2015-05-30 02:05:00,70.1,66.0,30.14,SSW,212,0.0,1.0,87,0.00,,,0.00,Wunderground v.1.15,2015-05-30 06:05:00,
2015-05-30 02:15:00,69.7,65.7,30.13,NW,317,0.0,1.0,87,0.00,,,0.00,Wunderground v.1.15,2015-05-30 06:15:00,
2015-05-30 02:25:00,69.2,65.5,30.13,WNW,297,0.0,1.0,88,0.00,,,0.00,Wunderground v.1.15,2015-05-30 06:25:00,
2015-05-30 02:35:00,68.8,65.4,30.13,WNW,297,0.0,1.0,89,0.00,,,0.00,Wunderground v.1.15,2015-05-30 06:35:00,
2015-05-30 02:40:00,68.6,65.5,30.13,WNW,297,0.0,1.0,90,0.00,,,0.00,Wunderground v.1.15,2015-05-30 06:40:00,
2015-05-30 02:50:00,68.0,65.3,30.12,WNW,297,0.0,1.0,91,0.00,,,0.00,Wunderground v.1.15,2015-05-30 06:50:00,
2015-05-30 03:10:00,67.3,64.9,30.12,WNW,297,0.0,1.0,92,0.00,,,0.00,Wunderground v.1.15,2015-05-30 07:10:00,
2015-05-30 03:15:00,67.2,64.8,30.12,WNW,297,0.0,1.0,92,0.00,,,0.00,Wunderground v.1.15,2015-05-30 07:15:00,
2015-05-30 03:25:00,66.9,64.8,30.12,WNW,297,0.0,1.0,93,0.00,,,0.00,Wunderground v.1.15,2015-05-30 07:25:00,
2015-05-30 03:35:00,66.7,64.6,30.11,WNW,297,0.0,1.0,93,0.00,,,0.00,Wunderground v.1.15,2015-05-30 07:35:00,
2015-05-30 03:40:00,66.6,64.8,30.11,WNW,297,0.0,1.0,94,0.00,,,0.00,Wunderground v.1.15,2015-05-30 07:40:00,
2015-05-30 03:50:00,66.6,64.8,30.11,WNW,297,0.0,1.0,94,0.00,,,0.00,Wunderground v.1.15,2015-05-30 07:50:00,
2015-05-30 03:55:00,66.4,64.6,30.11,WNW,297,0.0,1.0,94,0.00,,,0.00,Wunderground v.1.15,2015-05-30 07:55:00,
2015-05-30 04:00:00,66.3,64.5,30.11,WNW,297,0.0,1.0,94,0.00,,,0.00,Wunderground v.1.15,2015-05-30 08:00:00,
2015-05-30 04:15:00,65.9,64.4,30.11,WNW,297,0.0,1.0,95,0.00,,,0.00,Wunderground v.1.15,2015-05-30 08:15:00,
2015-05-30 04:30:00,65.2,63.7,30.11,WNW,297,0.0,1.0,95,0.00,,,0.00,Wunderground v.1.15,2015-05-30 08:30:00,
2015-05-30 04:40:00,64.7,63.2,30.11,WNW,297,0.0,1.0,95,0.00,,,0.00,Wunderground v.1.15,2015-05-30 08:40:00,
2015-05-30 04:45:00,64.8,63.6,30.11,WNW,297,0.0,1.0,96,0.00,,,0.00,Wunderground v.1.15,2015-05-30 08:45:00,
2015-05-30 04:55:00,64.7,63.5,30.11,WNW,297,0.0,1.0,96,0.00,,,0.00,Wunderground v.1.15,2015-05-30 08:55:00,
2015-05-30 05:05:00,64.4,63.2,30.11,WNW,297,0.0,1.0,96,0.00,,,0.00,Wunderground v.1.15,2015-05-30 09:05:00,
2015-05-30 05:15:00,64.5,63.3,30.11,WNW,297,0.0,1.0,96,0.00,,,0.00,Wunderground v.1.15,2015-05-30 09:15:00,
2015-05-30 05:25:00,64.7,63.8,30.11,WNW,297,0.0,1.0,97,0.00,,,0.00,Wunderground v.1.15,2015-05-30 09:25:00,
2015-05-30 05:35:00,64.7,63.5,30.12,WNW,297,0.0,1.0,96,0.00,,,0.00,Wunderground v.1.15,2015-05-30 09:35:00,
2015-05-30 05:45:00,64.6,63.4,30.12,WNW,297,0.0,1.0,96,0.00,,,0.00,Wunderground v.1.15,2015-05-30 09:45:00,
2015-05-30 05:55:00,64.6,63.4,30.12,WNW,297,0.0,1.0,96,0.00,,,0.00,Wunderground v.1.15,2015-05-30 09:55:00,
2015-05-30 06:05:00,64.6,63.7,30.12,WNW,297,0.0,1.0,97,0.00,,,0.00,Wunderground v.1.15,2015-05-30 10:05:00,
2015-05-30 06:10:00,64.6,63.7,30.13,WNW,297,0.0,1.0,97,0.00,,,0.00,Wunderground v.1.15,2015-05-30 10:10:00,
2015-05-30 06:15:00,64.7,63.8,30.13,WNW,297,0.0,1.0,97,0.00,,,0.00,Wunderground v.1.15,2015-05-30 10:15:00,
2015-05-30 06:25:00,64.9,64.0,30.13,WNW,297,0.0,1.0,97,0.00,,,0.00,Wunderground v.1.15,2015-05-30 10:25:00,